createdAt,value
2017-09-02T00:00:33.060Z,12.99
2017-09-02T00:01:33.044Z,12.99
2017-09-02T00:02:33.053Z,12.97
2017-09-02T00:03:32.696Z,13
2017-09-02T00:04:32.735Z,12.97
2017-09-02T00:05:32.988Z,13.07
2017-09-02T00:06:32.977Z,13.06
2017-09-02T00:07:32.961Z,13.07
2017-09-02T00:08:32.955Z,13.07
2017-09-02T00:09:32.935Z,13.12
2017-09-02T00:10:32.923Z,13.14
2017-09-02T00:11:32.587Z,13.17
2017-09-02T00:12:32.572Z,13.07
2017-09-02T00:13:33.206Z,13.03
2017-09-02T00:14:33.182Z,13.12
2017-09-02T00:15:32.849Z,13.09
2017-09-02T00:16:32.517Z,13.09
2017-09-02T00:17:33.181Z,13.03
2017-09-02T00:18:32.485Z,13.18
2017-09-02T00:19:32.525Z,13.07
2017-09-02T00:20:32.785Z,13.07
2017-09-02T00:21:32.773Z,13.11
2017-09-02T00:22:32.765Z,13.11
2017-09-02T00:23:32.754Z,13.18
2017-09-02T00:24:32.734Z,13.25
2017-09-02T00:25:32.715Z,13.18
2017-09-02T00:26:32.381Z,13.3
2017-09-02T00:27:32.684Z,13.25
2017-09-02T00:28:32.990Z,13.17
2017-09-02T00:29:32.658Z,13.21
2017-09-02T00:30:32.642Z,13.15
2017-09-02T00:31:32.313Z,13.21
2017-09-02T00:32:32.292Z,13.2
2017-09-02T00:33:32.919Z,13.22
2017-09-02T00:34:32.587Z,13.21
2017-09-02T00:35:32.572Z,13.21
2017-09-02T00:36:32.901Z,13.24
2017-09-02T00:37:32.544Z,13.22
2017-09-02T00:38:32.214Z,13.2
2017-09-02T00:39:32.515Z,13.29
2017-09-02T00:40:32.181Z,13.15
2017-09-02T00:41:32.490Z,13.22
2017-09-02T00:42:32.476Z,13.22
2017-09-02T00:43:32.784Z,13.21
2017-09-02T00:44:32.446Z,13.27
2017-09-02T00:45:32.433Z,13.25
2017-09-02T00:46:32.419Z,13.32
2017-09-02T00:47:32.403Z,13.21
2017-09-02T00:48:32.068Z,13.27
2017-09-02T00:49:32.378Z,13.32
2017-09-02T00:50:32.683Z,13.27
2017-09-02T00:51:32.029Z,13.22
2017-09-02T00:52:32.346Z,13.33
2017-09-02T00:53:32.652Z,13.33
2017-09-02T00:54:32.630Z,13.36
2017-09-02T00:55:32.296Z,13.41
2017-09-02T00:56:32.283Z,13.38
2017-09-02T00:57:32.284Z,13.4
2017-09-02T00:58:32.254Z,13.38
2017-09-02T00:59:31.921Z,13.3
2017-09-02T01:00:32.558Z,13.36
2017-09-02T01:01:32.534Z,13.3
2017-09-02T01:02:32.519Z,13.44
2017-09-02T01:03:32.191Z,13.44
2017-09-02T01:04:32.174Z,13.37
2017-09-02T01:05:31.842Z,13.29
2017-09-02T01:06:32.468Z,13.3
2017-09-02T01:07:32.148Z,13.32
2017-09-02T01:08:32.443Z,13.4
2017-09-02T01:09:32.426Z,13.41
2017-09-02T01:10:32.092Z,13.33
2017-09-02T01:11:31.757Z,13.44
2017-09-02T01:12:32.062Z,13.38
2017-09-02T01:13:32.052Z,13.32
2017-09-02T01:14:32.039Z,13.33
2017-09-02T01:15:31.699Z,13.33
2017-09-02T01:16:31.695Z,13.36
2017-09-02T01:17:32.327Z,13.29
2017-09-02T01:18:31.678Z,13.29
2017-09-02T01:19:31.664Z,13.22
2017-09-02T01:20:31.974Z,13.27
2017-09-02T01:21:31.967Z,13.17
2017-09-02T01:22:32.275Z,13.21
2017-09-02T01:23:31.912Z,13.25
2017-09-02T01:24:31.901Z,13.25
2017-09-02T01:25:31.570Z,13.2
2017-09-02T01:26:31.874Z,13.18
2017-09-02T01:27:32.185Z,13.15
2017-09-02T01:28:31.525Z,13.2
2017-09-02T01:29:31.505Z,13.21
2017-09-02T01:30:31.492Z,13.24
2017-09-02T01:31:31.802Z,13.25
2017-09-02T01:32:31.795Z,13.22
2017-09-02T01:33:31.455Z,13.21
2017-09-02T01:34:31.760Z,13.25
2017-09-02T01:35:31.426Z,13.2
2017-09-02T01:36:31.737Z,13.18
2017-09-02T01:37:32.039Z,13.24
2017-09-02T01:38:31.716Z,13.21
2017-09-02T01:39:32.024Z,13.22
2017-09-02T01:40:31.685Z,13.25
2017-09-02T01:41:31.667Z,13.25
2017-09-02T01:42:31.973Z,13.2
2017-09-02T01:43:31.315Z,13.24
2017-09-02T01:44:31.670Z,13.18
2017-09-02T01:45:31.964Z,13.22
2017-09-02T01:46:31.916Z,13.21
2017-09-02T01:47:31.580Z,13.22
2017-09-02T01:48:31.901Z,13.2
2017-09-02T01:49:31.560Z,13.18
2017-09-02T01:50:31.857Z,13.18
2017-09-02T01:51:31.527Z,13.18
2017-09-02T01:52:31.512Z,13.21
2017-09-02T01:53:31.177Z,13.17
2017-09-02T01:54:31.164Z,13.17
2017-09-02T01:55:31.470Z,13.2
2017-09-02T01:56:31.460Z,13.22
2017-09-02T01:57:31.443Z,13.2
2017-09-02T01:58:31.433Z,13.21
2017-09-02T01:59:31.735Z,13.25
2017-09-02T02:00:31.082Z,13.22
2017-09-02T02:01:31.384Z,13.21
2017-09-02T02:02:31.051Z,13.21
2017-09-02T02:03:31.358Z,13.21
2017-09-02T02:04:31.665Z,13.32
2017-09-02T02:05:31.331Z,13.27
2017-09-02T02:06:31.642Z,13.2
2017-09-02T02:07:30.985Z,13.27
2017-09-02T02:08:31.294Z,13.22
2017-09-02T02:09:31.594Z,13.29
2017-09-02T02:10:31.787Z,13.27
2017-09-02T02:11:31.249Z,13.21
2017-09-02T02:12:31.558Z,13.25
2017-09-02T02:13:30.906Z,13.29
2017-09-02T02:14:31.213Z,13.22
2017-09-02T02:15:31.205Z,13.3
2017-09-02T02:16:31.185Z,13.25
2017-09-02T02:17:31.168Z,13.3
2017-09-02T02:18:31.156Z,13.29
2017-09-02T02:19:31.460Z,13.25
2017-09-02T02:20:31.445Z,13.29
2017-09-02T02:21:31.115Z,13.33
2017-09-02T02:22:30.779Z,13.36
2017-09-02T02:23:31.080Z,13.32
2017-09-02T02:24:31.075Z,13.27
2017-09-02T02:25:31.060Z,13.3
2017-09-02T02:26:30.726Z,13.37
2017-09-02T02:27:31.031Z,13.29
2017-09-02T02:28:31.334Z,13.24
2017-09-02T02:29:30.680Z,13.36
2017-09-02T02:30:30.994Z,13.29
2017-09-02T02:31:30.976Z,13.29
2017-09-02T02:32:30.962Z,13.27
2017-09-02T02:33:30.951Z,13.22
2017-09-02T02:34:30.611Z,13.24
2017-09-02T02:35:30.932Z,13.32
2017-09-02T02:36:31.234Z,13.18
2017-09-02T02:37:30.579Z,13.24
2017-09-02T02:38:31.201Z,13.3
2017-09-02T02:39:31.188Z,13.24
2017-09-02T02:40:31.173Z,13.33
2017-09-02T02:41:31.162Z,13.3
2017-09-02T02:42:31.157Z,13.22
2017-09-02T02:43:31.136Z,13.29
2017-09-02T02:44:30.531Z,13.43
2017-09-02T02:45:31.101Z,13.43
2017-09-02T02:46:30.770Z,13.4
2017-09-02T02:47:30.758Z,13.47
2017-09-02T02:48:30.427Z,13.41
2017-09-02T02:49:30.409Z,13.43
2017-09-02T02:50:31.037Z,13.44
2017-09-02T02:51:30.432Z,13.3
2017-09-02T02:52:30.686Z,13.4
2017-09-02T02:53:30.351Z,13.43
2017-09-02T02:54:30.659Z,13.44
2017-09-02T02:55:30.967Z,13.41
2017-09-02T02:56:30.313Z,13.44
2017-09-02T02:57:30.941Z,13.44
2017-09-02T02:58:30.929Z,13.33
2017-09-02T02:59:30.596Z,13.33
2017-09-02T03:00:30.582Z,13.32
2017-09-02T03:01:30.888Z,13.46
2017-09-02T03:02:30.557Z,13.37
2017-09-02T03:03:30.856Z,13.4
2017-09-02T03:04:30.527Z,13.37
2017-09-02T03:05:30.196Z,13.33
2017-09-02T03:06:30.179Z,13.41
2017-09-02T03:07:30.164Z,13.36
2017-09-02T03:08:30.151Z,13.44
2017-09-02T03:09:30.458Z,13.41
2017-09-02T03:10:30.766Z,13.38
2017-09-02T03:11:30.427Z,13.43
2017-09-02T03:12:30.431Z,13.33
2017-09-02T03:13:30.079Z,13.4
2017-09-02T03:14:30.916Z,13.4
2017-09-02T03:15:30.695Z,13.41
2017-09-02T03:16:30.041Z,13.33
2017-09-02T03:17:30.344Z,13.32
2017-09-02T03:18:30.340Z,13.25
2017-09-02T03:19:30.639Z,13.33
2017-09-02T03:20:30.304Z,13.3
2017-09-02T03:21:30.611Z,13.32
2017-09-02T03:22:29.955Z,13.32
2017-09-02T03:23:30.261Z,13.27
2017-09-02T03:24:29.936Z,13.25
2017-09-02T03:25:29.932Z,13.27
2017-09-02T03:26:30.228Z,13.25
2017-09-02T03:27:30.206Z,13.27
2017-09-02T03:28:30.519Z,13.24
2017-09-02T03:29:29.863Z,13.18
2017-09-02T03:30:30.172Z,13.2
2017-09-02T03:31:30.154Z,13.17
2017-09-02T03:32:30.457Z,13.12
2017-09-02T03:33:30.127Z,13.22
2017-09-02T03:34:30.434Z,13.09
2017-09-02T03:35:30.100Z,13.09
2017-09-02T03:36:30.406Z,13.07
2017-09-02T03:37:29.753Z,13.09
2017-09-02T03:38:30.069Z,13.11
2017-09-02T03:39:30.364Z,13.03
2017-09-02T03:40:30.350Z,13
2017-09-02T03:41:30.017Z,13
2017-09-02T03:42:30.008Z,13
2017-09-02T03:43:29.987Z,12.97
2017-09-02T03:44:29.977Z,12.93
2017-09-02T03:45:29.964Z,12.99
2017-09-02T03:46:29.945Z,12.95
2017-09-02T03:47:29.932Z,12.89
2017-09-02T03:48:29.920Z,12.85
2017-09-02T03:49:30.232Z,12.87
2017-09-02T03:50:29.892Z,12.81
2017-09-02T03:51:29.886Z,12.85
2017-09-02T03:52:29.860Z,12.88
2017-09-02T03:53:29.855Z,12.84
2017-09-02T03:54:29.835Z,12.92
2017-09-02T03:55:29.828Z,12.88
2017-09-02T03:56:29.486Z,12.88
2017-09-02T03:57:29.557Z,12.87
2017-09-02T03:58:29.775Z,12.87
2017-09-02T03:59:29.765Z,12.92
2017-09-02T04:00:29.753Z,12.93
2017-09-02T04:01:29.413Z,12.88
2017-09-02T04:02:29.776Z,12.93
2017-09-02T04:03:29.710Z,12.93
2017-09-02T04:04:29.696Z,12.89
2017-09-02T04:05:29.687Z,12.99
2017-09-02T04:06:29.667Z,12.92
2017-09-02T04:07:29.982Z,12.85
2017-09-02T04:08:29.960Z,12.88
2017-09-02T04:09:29.622Z,12.89
2017-09-02T04:10:29.813Z,12.87
2017-09-02T04:11:29.283Z,12.93
2017-09-02T04:12:29.905Z,12.93
2017-09-02T04:13:29.248Z,12.82
2017-09-02T04:14:29.555Z,12.82
2017-09-02T04:15:29.869Z,12.89
2017-09-02T04:16:29.206Z,12.84
2017-09-02T04:17:29.515Z,12.89
2017-09-02T04:18:29.498Z,12.92
2017-09-02T04:19:29.489Z,12.92
2017-09-02T04:20:29.477Z,12.88
2017-09-02T04:21:29.793Z,12.82
2017-09-02T04:22:29.125Z,12.88
2017-09-02T04:23:29.761Z,12.82
2017-09-02T04:24:29.416Z,12.89
2017-09-02T04:25:29.407Z,12.88
2017-09-02T04:26:29.076Z,12.92
2017-09-02T04:27:29.408Z,12.88
2017-09-02T04:28:29.036Z,12.97
2017-09-02T04:29:29.048Z,12.89
2017-09-02T04:30:29.329Z,12.95
2017-09-02T04:31:29.323Z,12.84
2017-09-02T04:32:29.306Z,12.95
2017-09-02T04:33:29.296Z,12.89
2017-09-02T04:34:29.602Z,12.96
2017-09-02T04:35:29.609Z,12.85
2017-09-02T04:36:29.248Z,12.84
2017-09-02T04:37:29.240Z,12.95
2017-09-02T04:38:28.900Z,12.85
2017-09-02T04:39:29.534Z,12.89
2017-09-02T04:40:29.188Z,12.88
2017-09-02T04:41:28.860Z,12.95
2017-09-02T04:42:29.165Z,12.96
2017-09-02T04:43:29.152Z,12.97
2017-09-02T04:44:29.454Z,12.92
2017-09-02T04:45:29.123Z,12.97
2017-09-02T04:46:28.792Z,12.96
2017-09-02T04:47:29.423Z,12.95
2017-09-02T04:48:29.076Z,12.88
2017-09-02T04:49:28.745Z,12.99
2017-09-02T04:50:29.369Z,12.96
2017-09-02T04:51:29.360Z,12.96
2017-09-02T04:52:28.710Z,12.99
2017-09-02T04:53:29.013Z,12.99
2017-09-02T04:54:28.996Z,12.96
2017-09-02T04:55:29.309Z,12.96
2017-09-02T04:56:28.987Z,12.99
2017-09-02T04:57:28.646Z,12.99
2017-09-02T04:58:29.520Z,12.99
2017-09-02T04:59:28.939Z,12.96
2017-09-02T05:00:28.588Z,12.95
2017-09-02T05:01:29.429Z,12.96
2017-09-02T05:02:29.215Z,12.99
2017-09-02T05:03:29.195Z,12.96
2017-09-02T05:04:28.857Z,13
2017-09-02T05:05:29.166Z,12.99
2017-09-02T05:06:28.538Z,13
2017-09-02T05:07:29.152Z,12.97
2017-09-02T05:08:28.483Z,13.02
2017-09-02T05:09:28.784Z,13.02
2017-09-02T05:10:28.768Z,12.96
2017-09-02T05:11:28.758Z,13
2017-09-02T05:12:29.068Z,12.96
2017-09-02T05:13:29.046Z,13.03
2017-09-02T05:14:28.720Z,12.97
2017-09-02T05:15:29.021Z,12.99
2017-09-02T05:16:29.013Z,13
2017-09-02T05:17:28.378Z,12.97
2017-09-02T05:18:28.339Z,12.92
2017-09-02T05:19:28.652Z,12.96
2017-09-02T05:20:28.632Z,12.97
2017-09-02T05:21:28.293Z,13
2017-09-02T05:22:28.605Z,13.04
2017-09-02T05:23:28.263Z,12.96
2017-09-02T05:24:28.904Z,12.99
2017-09-02T05:25:28.573Z,12.97
2017-09-02T05:26:28.226Z,13.15
2017-09-02T05:27:28.214Z,13.06
2017-09-02T05:28:28.844Z,13.06
2017-09-02T05:29:28.184Z,13.15
2017-09-02T05:30:28.812Z,13.04
2017-09-02T05:31:28.157Z,13.09
2017-09-02T05:32:28.463Z,13.12
2017-09-02T05:33:28.487Z,13.12
2017-09-02T05:34:28.115Z,13.06
2017-09-02T05:35:28.422Z,13.2
2017-09-02T05:36:28.089Z,13.18
2017-09-02T05:37:28.406Z,13.12
2017-09-02T05:38:28.696Z,13.17
2017-09-02T05:39:28.368Z,13.17
2017-09-02T05:40:28.359Z,13.22
2017-09-02T05:41:28.355Z,13.2
2017-09-02T05:42:28.333Z,13.25
2017-09-02T05:43:27.994Z,13.24
2017-09-02T05:44:28.298Z,13.24
2017-09-02T05:45:28.607Z,13.27
2017-09-02T05:46:28.275Z,13.29
2017-09-02T05:47:28.272Z,13.32
2017-09-02T05:48:27.927Z,13.29
2017-09-02T05:49:28.230Z,13.3
2017-09-02T05:50:28.214Z,13.33
2017-09-02T05:51:28.202Z,13.32
2017-09-02T05:52:27.871Z,13.37
2017-09-02T05:53:27.855Z,13.33
2017-09-02T05:54:28.502Z,13.41
2017-09-02T05:55:28.151Z,13.37
2017-09-02T05:56:27.814Z,13.41
2017-09-02T05:57:28.121Z,13.33
2017-09-02T05:58:28.431Z,13.47
2017-09-02T05:59:28.097Z,13.43
2017-09-02T06:00:27.756Z,13.52
2017-09-02T06:01:28.385Z,13.49
2017-09-02T06:02:28.054Z,13.43
2017-09-02T06:03:28.365Z,13.46
2017-09-02T06:04:28.398Z,13.51
2017-09-02T06:05:28.012Z,13.55
2017-09-02T06:06:28.000Z,13.59
2017-09-02T06:07:27.986Z,13.56
2017-09-02T06:08:27.654Z,13.62
2017-09-02T06:09:27.690Z,13.61
2017-09-02T06:10:27.824Z,13.69
2017-09-02T06:11:27.964Z,13.76
2017-09-02T06:12:27.916Z,13.7
2017-09-02T06:13:27.906Z,13.77
2017-09-02T06:14:27.890Z,13.73
2017-09-02T06:15:28.209Z,13.71
2017-09-02T06:16:27.543Z,13.74
2017-09-02T06:17:27.851Z,13.83
2017-09-02T06:18:27.527Z,13.83
2017-09-02T06:19:27.824Z,13.84
2017-09-02T06:20:28.138Z,13.88
2017-09-02T06:21:28.118Z,13.79
2017-09-02T06:22:27.468Z,13.79
2017-09-02T06:23:27.773Z,13.81
2017-09-02T06:24:27.764Z,13.77
2017-09-02T06:25:27.751Z,13.84
2017-09-02T06:26:27.733Z,13.83
2017-09-02T06:27:28.046Z,13.88
2017-09-02T06:28:27.384Z,13.8
2017-09-02T06:29:27.374Z,13.8
2017-09-02T06:30:27.683Z,13.79
2017-09-02T06:31:27.992Z,13.79
2017-09-02T06:32:27.987Z,13.81
2017-09-02T06:33:27.640Z,13.84
2017-09-02T06:34:27.627Z,13.87
2017-09-02T06:35:27.292Z,13.92
2017-09-02T06:36:27.603Z,13.88
2017-09-02T06:37:27.905Z,13.83
2017-09-02T06:38:27.894Z,13.91
2017-09-02T06:39:27.564Z,13.91
2017-09-02T06:40:27.882Z,13.96
2017-09-02T06:41:27.859Z,13.94
2017-09-02T06:42:27.522Z,13.98
2017-09-02T06:43:27.192Z,13.92
2017-09-02T06:44:27.177Z,14.01
2017-09-02T06:45:27.488Z,14.02
2017-09-02T06:46:27.473Z,14.06
2017-09-02T06:47:27.460Z,14.06
2017-09-02T06:48:27.768Z,14.09
2017-09-02T06:49:27.753Z,14.09
2017-09-02T06:50:27.098Z,14.1
2017-09-02T06:51:27.408Z,14.06
2017-09-02T06:52:27.714Z,14.09
2017-09-02T06:53:27.377Z,14.13
2017-09-02T06:54:27.367Z,14.09
2017-09-02T06:55:27.358Z,14.13
2017-09-02T06:56:27.347Z,14.2
2017-09-02T06:57:27.650Z,14.27
2017-09-02T06:58:27.642Z,14.24
2017-09-02T06:59:27.624Z,14.28
2017-09-02T07:00:27.290Z,14.28
2017-09-02T07:01:27.614Z,14.24
2017-09-02T07:02:26.957Z,14.29
2017-09-02T07:03:26.936Z,14.29
2017-09-02T07:04:26.922Z,14.31
2017-09-02T07:05:26.911Z,14.29
2017-09-02T07:06:27.211Z,14.28
2017-09-02T07:07:27.531Z,14.27
2017-09-02T07:08:27.511Z,14.34
2017-09-02T07:09:27.174Z,14.34
2017-09-02T07:10:26.838Z,14.35
2017-09-02T07:11:27.147Z,14.37
2017-09-02T07:12:27.145Z,14.35
2017-09-02T07:13:27.121Z,14.44
2017-09-02T07:14:27.434Z,14.35
2017-09-02T07:15:26.777Z,14.35
2017-09-02T07:16:27.097Z,14.46
2017-09-02T07:17:26.753Z,14.52
2017-09-02T07:18:27.068Z,14.5
2017-09-02T07:19:27.053Z,14.49
2017-09-02T07:20:27.354Z,14.54
2017-09-02T07:21:27.066Z,14.5
2017-09-02T07:22:27.014Z,14.56
2017-09-02T07:23:27.004Z,14.61
2017-09-02T07:24:26.668Z,14.67
2017-09-02T07:25:27.294Z,14.75
2017-09-02T07:26:27.282Z,14.68
2017-09-02T07:27:27.264Z,14.75
2017-09-02T07:28:26.614Z,14.78
2017-09-02T07:29:26.600Z,14.81
2017-09-02T07:30:27.231Z,14.87
2017-09-02T07:31:27.222Z,14.91
2017-09-02T07:32:27.205Z,14.94
2017-09-02T07:33:27.196Z,14.94
2017-09-02T07:34:27.182Z,15.02
2017-09-02T07:35:26.847Z,14.98
2017-09-02T07:36:26.835Z,15.05
2017-09-02T07:37:27.143Z,15.03
2017-09-02T07:38:26.809Z,15.03
2017-09-02T07:39:27.117Z,15.09
2017-09-02T07:40:26.461Z,15.12
2017-09-02T07:41:26.506Z,15.13
2017-09-02T07:42:26.759Z,15.13
2017-09-02T07:43:26.744Z,15.24
2017-09-02T07:44:26.732Z,15.3
2017-09-02T07:45:26.720Z,15.26
2017-09-02T07:46:26.390Z,15.27
2017-09-02T07:47:27.014Z,15.36
2017-09-02T07:48:27.010Z,15.33
2017-09-02T07:49:26.351Z,15.39
2017-09-02T07:50:26.986Z,15.41
2017-09-02T07:51:26.971Z,15.41
2017-09-02T07:52:26.976Z,15.42
2017-09-02T07:53:26.626Z,15.43
2017-09-02T07:54:26.614Z,15.43
2017-09-02T07:55:26.283Z,15.52
2017-09-02T07:56:26.913Z,15.51
2017-09-02T07:57:26.907Z,15.42
2017-09-02T07:58:26.243Z,15.52
2017-09-02T07:59:26.554Z,15.51
2017-09-02T08:00:26.542Z,15.64
2017-09-02T08:01:26.212Z,15.63
2017-09-02T08:02:26.518Z,15.6
2017-09-02T08:03:26.506Z,15.7
2017-09-02T08:04:26.181Z,15.66
2017-09-02T08:05:26.487Z,15.63
2017-09-02T08:06:26.472Z,15.72
2017-09-02T08:07:26.458Z,15.76
2017-09-02T08:08:26.498Z,15.79
2017-09-02T08:09:26.440Z,15.78
2017-09-02T08:10:26.950Z,15.84
2017-09-02T08:11:26.741Z,15.92
2017-09-02T08:12:26.408Z,15.86
2017-09-02T08:13:26.388Z,15.89
2017-09-02T08:14:26.700Z,15.93
2017-09-02T08:15:26.687Z,15.93
2017-09-02T08:16:26.677Z,16.03
2017-09-02T08:17:26.025Z,16.14
2017-09-02T08:18:26.335Z,16.16
2017-09-02T08:19:26.002Z,16.23
2017-09-02T08:20:26.312Z,16.14
2017-09-02T08:21:26.625Z,16.27
2017-09-02T08:22:26.287Z,16.35
2017-09-02T08:23:25.962Z,16.35
2017-09-02T08:24:26.271Z,16.48
2017-09-02T08:25:26.579Z,16.62
2017-09-02T08:26:26.246Z,16.83
2017-09-02T08:27:26.558Z,16.99
2017-09-02T08:28:26.227Z,16.96
2017-09-02T08:29:26.547Z,16.96
2017-09-02T08:30:26.203Z,17.06
2017-09-02T08:31:26.192Z,17.06
2017-09-02T08:32:26.502Z,17.06
2017-09-02T08:33:25.853Z,17.06
2017-09-02T08:34:26.482Z,17.03
2017-09-02T08:35:26.152Z,17.07
2017-09-02T08:36:25.819Z,17.04
2017-09-02T08:37:26.451Z,17.03
2017-09-02T08:38:25.795Z,17.07
2017-09-02T08:39:26.425Z,17.06
2017-09-02T08:40:25.774Z,17.15
2017-09-02T08:41:25.766Z,17.08
2017-09-02T08:42:26.401Z,17.03
2017-09-02T08:43:26.065Z,17.03
2017-09-02T08:44:26.062Z,17.04
2017-09-02T08:45:26.362Z,17.06
2017-09-02T08:46:26.028Z,17.07
2017-09-02T08:47:26.339Z,16.98
2017-09-02T08:48:25.688Z,16.92
2017-09-02T08:49:25.999Z,16.92
2017-09-02T08:50:25.989Z,16.98
2017-09-02T08:51:25.981Z,16.93
2017-09-02T08:52:25.973Z,16.93
2017-09-02T08:53:25.951Z,16.9
2017-09-02T08:54:25.623Z,16.93
2017-09-02T08:55:26.255Z,16.92
2017-09-02T08:56:25.601Z,17
2017-09-02T08:57:25.593Z,16.95
2017-09-02T08:58:25.582Z,17.04
2017-09-02T08:59:26.214Z,16.98
2017-09-02T09:00:25.881Z,17.03
2017-09-02T09:01:25.870Z,17.08
2017-09-02T09:02:26.179Z,17.07
2017-09-02T09:03:25.857Z,17.07
2017-09-02T09:04:26.157Z,17.06
2017-09-02T09:05:26.154Z,17.15
2017-09-02T09:06:25.500Z,17.22
2017-09-02T09:07:25.807Z,17.23
2017-09-02T09:08:25.794Z,17.29
2017-09-02T09:09:25.469Z,17.36
2017-09-02T09:10:25.779Z,17.51
2017-09-02T09:11:25.768Z,17.53
2017-09-02T09:12:25.434Z,17.67
2017-09-02T09:13:26.067Z,17.76
2017-09-02T09:14:25.739Z,17.82
2017-09-02T09:15:25.405Z,17.92
2017-09-02T09:16:25.716Z,18.09
2017-09-02T09:17:26.034Z,18.17
2017-09-02T09:18:26.021Z,18.24
2017-09-02T09:19:25.694Z,18.36
2017-09-02T09:20:26.002Z,18.42
2017-09-02T09:21:25.351Z,18.46
2017-09-02T09:22:25.983Z,18.52
2017-09-02T09:23:25.649Z,18.46
2017-09-02T09:24:25.642Z,18.59
2017-09-02T09:25:25.636Z,18.54
2017-09-02T09:26:25.624Z,18.54
2017-09-02T09:27:25.292Z,18.46
2017-09-02T09:28:25.603Z,18.49
2017-09-02T09:29:25.593Z,18.34
2017-09-02T09:30:25.605Z,18.44
2017-09-02T09:31:25.577Z,18.46
2017-09-02T09:32:25.572Z,18.49
2017-09-02T09:33:25.883Z,18.54
2017-09-02T09:34:25.869Z,18.54
2017-09-02T09:35:25.862Z,18.67
2017-09-02T09:36:25.532Z,18.68
2017-09-02T09:37:25.524Z,18.84
2017-09-02T09:38:25.572Z,18.94
2017-09-02T09:39:25.187Z,18.9
2017-09-02T09:40:25.502Z,18.8
2017-09-02T09:41:25.177Z,18.86
2017-09-02T09:42:25.487Z,18.79
2017-09-02T09:43:25.805Z,18.87
2017-09-02T09:44:25.475Z,18.83
2017-09-02T09:45:25.779Z,18.82
2017-09-02T09:46:25.459Z,18.83
2017-09-02T09:47:25.124Z,18.77
2017-09-02T09:48:25.116Z,18.74
2017-09-02T09:49:25.106Z,18.65
2017-09-02T09:50:25.421Z,18.7
2017-09-02T09:51:25.088Z,18.57
2017-09-02T09:52:25.780Z,18.59
2017-09-02T09:53:25.447Z,18.57
2017-09-02T09:54:25.065Z,18.55
2017-09-02T09:55:25.376Z,18.47
2017-09-02T09:56:25.365Z,18.42
2017-09-02T09:57:25.357Z,18.44
2017-09-02T09:58:25.344Z,18.43
2017-09-02T09:59:25.017Z,18.39
2017-09-02T10:00:25.007Z,18.34
2017-09-02T10:01:25.320Z,18.33
2017-09-02T10:02:24.989Z,18.22
2017-09-02T10:03:25.354Z,18.29
2017-09-02T10:04:25.616Z,18.24
2017-09-02T10:05:25.618Z,18.25
2017-09-02T10:06:24.957Z,18.29
2017-09-02T10:07:24.950Z,18.42
2017-09-02T10:08:25.379Z,18.37
2017-09-02T10:09:25.578Z,18.52
2017-09-02T10:10:25.444Z,18.58
2017-09-02T10:11:25.233Z,18.62
2017-09-02T10:12:25.224Z,18.65
2017-09-02T10:13:25.214Z,18.76
2017-09-02T10:14:24.884Z,18.72
2017-09-02T10:15:25.524Z,18.72
2017-09-02T10:16:24.873Z,18.72
2017-09-02T10:17:25.180Z,18.64
2017-09-02T10:18:24.853Z,18.61
2017-09-02T10:19:24.842Z,18.65
2017-09-02T10:20:25.479Z,18.7
2017-09-02T10:21:25.151Z,18.67
2017-09-02T10:22:25.234Z,18.67
2017-09-02T10:23:25.451Z,18.54
2017-09-02T10:24:25.137Z,18.49
2017-09-02T10:25:25.113Z,18.57
2017-09-02T10:26:24.785Z,18.58
2017-09-02T10:27:25.100Z,18.62
2017-09-02T10:28:25.089Z,18.64
2017-09-02T10:29:25.400Z,18.8
2017-09-02T10:30:25.391Z,18.83
2017-09-02T10:31:24.741Z,18.79
2017-09-02T10:32:25.084Z,18.91
2017-09-02T10:33:25.042Z,18.84
2017-09-02T10:34:25.033Z,19.08
2017-09-02T10:35:25.029Z,19.02
2017-09-02T10:36:25.031Z,19.13
2017-09-02T10:37:25.010Z,19.25
2017-09-02T10:38:24.711Z,19.32
2017-09-02T10:39:25.000Z,19.42
2017-09-02T10:40:24.674Z,19.43
2017-09-02T10:41:24.986Z,19.38
2017-09-02T10:42:25.290Z,19.4
2017-09-02T10:43:24.962Z,19.38
2017-09-02T10:44:24.959Z,19.31
2017-09-02T10:45:25.272Z,19.31
2017-09-02T10:46:24.953Z,19.29
2017-09-02T10:47:24.932Z,19.28
2017-09-02T10:48:24.933Z,19.28
2017-09-02T10:49:25.250Z,19.35
2017-09-02T10:50:24.924Z,19.39
2017-09-02T10:51:25.244Z,19.5
2017-09-02T10:52:25.228Z,19.58
2017-09-02T10:53:24.574Z,19.7
2017-09-02T10:54:24.566Z,19.72
2017-09-02T10:55:25.013Z,19.83
2017-09-02T10:56:25.227Z,19.88
2017-09-02T10:57:24.881Z,19.94
2017-09-02T10:58:25.186Z,19.91
2017-09-02T10:59:24.855Z,20.02
2017-09-02T11:00:24.857Z,19.93
2017-09-02T11:01:24.866Z,19.98
2017-09-02T11:02:24.832Z,19.98
2017-09-02T11:03:25.158Z,19.95
2017-09-02T11:04:25.144Z,19.95
2017-09-02T11:05:24.839Z,20.1
2017-09-02T11:06:24.479Z,20.1
2017-09-02T11:07:25.117Z,20.27
2017-09-02T11:08:24.787Z,20.2
2017-09-02T11:09:25.102Z,20.31
2017-09-02T11:10:25.104Z,20.35
2017-09-02T11:11:24.771Z,20.42
2017-09-02T11:12:24.765Z,20.51
2017-09-02T11:13:24.451Z,20.59
2017-09-02T11:14:25.077Z,20.41
2017-09-02T11:15:24.428Z,20.43
2017-09-02T11:16:25.067Z,20.42
2017-09-02T11:17:24.736Z,20.2
2017-09-02T11:18:24.412Z,20.05
2017-09-02T11:19:25.048Z,19.88
2017-09-02T11:20:24.721Z,19.79
2017-09-02T11:21:24.391Z,19.72
2017-09-02T11:22:24.707Z,19.68
2017-09-02T11:23:24.382Z,19.51
2017-09-02T11:24:24.696Z,19.46
2017-09-02T11:25:25.019Z,19.4
2017-09-02T11:26:24.681Z,19.42
2017-09-02T11:27:24.685Z,19.46
2017-09-02T11:28:24.674Z,19.95
2017-09-02T11:29:24.668Z,20.59
2017-09-02T11:30:24.988Z,21.23
2017-09-02T11:31:24.975Z,21.67
2017-09-02T11:32:24.327Z,22.28
2017-09-02T11:33:24.962Z,22.52
2017-09-02T11:34:24.641Z,22.96
2017-09-02T11:35:24.640Z,23.4
2017-09-02T11:36:24.644Z,23.72
2017-09-02T11:37:24.318Z,24.08
2017-09-02T11:38:24.630Z,24.38
2017-09-02T11:39:24.300Z,24.73
2017-09-02T11:40:24.623Z,24.94
2017-09-02T11:41:24.620Z,25.1
2017-09-02T11:42:24.622Z,25.22
2017-09-02T11:43:24.944Z,25.39
2017-09-02T11:44:24.299Z,25.5
2017-09-02T11:45:24.615Z,25.86
2017-09-02T11:46:24.992Z,26.08
2017-09-02T11:47:24.364Z,26.05
2017-09-02T11:48:24.625Z,25.61
2017-09-02T11:49:24.626Z,25.12
2017-09-02T11:50:24.313Z,24.44
2017-09-02T11:51:24.974Z,24.1
2017-09-02T11:52:24.644Z,23.55
2017-09-02T11:53:24.645Z,23.29
2017-09-02T11:54:24.309Z,22.82
2017-09-02T11:55:24.305Z,22.65
2017-09-02T11:56:24.626Z,22.35
2017-09-02T11:57:24.958Z,22.2
2017-09-02T11:58:24.632Z,22.06
2017-09-02T11:59:24.308Z,21.76
2017-09-02T12:00:25.000Z,21.64
2017-09-02T12:01:24.942Z,21.5
2017-09-02T12:02:24.624Z,21.41
2017-09-02T12:03:24.297Z,21.29
2017-09-02T12:04:24.291Z,21.21
2017-09-02T12:05:24.289Z,21.66
2017-09-02T12:06:24.930Z,22.32
2017-09-02T12:07:24.605Z,22.94
2017-09-02T12:08:24.280Z,23.68
2017-09-02T12:09:24.929Z,24.22
2017-09-02T12:10:25.126Z,24.63
2017-09-02T12:11:24.596Z,25.22
2017-09-02T12:12:24.594Z,25.69
2017-09-02T12:13:24.919Z,26.06
2017-09-02T12:14:24.916Z,26.72
2017-09-02T12:15:24.275Z,26.77
2017-09-02T12:16:24.276Z,26.4
2017-09-02T12:17:24.274Z,25.98
2017-09-02T12:18:24.592Z,25.75
2017-09-02T12:19:24.275Z,26.31
2017-09-02T12:20:24.606Z,26.79
2017-09-02T12:21:24.601Z,26.61
2017-09-02T12:22:24.283Z,26.18
2017-09-02T12:23:24.321Z,25.94
2017-09-02T12:24:24.607Z,25.61
2017-09-02T12:25:24.938Z,25.44
2017-09-02T12:26:24.609Z,25.93
2017-09-02T12:27:24.619Z,25.83
2017-09-02T12:28:24.608Z,25.42
2017-09-02T12:29:24.293Z,24.95
2017-09-02T12:30:24.611Z,24.67
2017-09-02T12:31:24.292Z,24.54
2017-09-02T12:32:24.615Z,24.49
2017-09-02T12:33:24.963Z,24.34
2017-09-02T12:34:24.613Z,24.08
2017-09-02T12:35:24.620Z,23.86
2017-09-02T12:36:24.293Z,23.75
2017-09-02T12:37:24.614Z,23.6
2017-09-02T12:38:24.632Z,23.9
2017-09-02T12:39:24.290Z,24.23
2017-09-02T12:40:24.609Z,23.97
2017-09-02T12:41:24.608Z,23.87
2017-09-02T12:42:24.612Z,24.52
2017-09-02T12:43:24.950Z,25.1
2017-09-02T12:44:24.925Z,25.62
2017-09-02T12:45:24.286Z,26.18
2017-09-02T12:46:24.606Z,26.79
2017-09-02T12:47:24.279Z,27.19
2017-09-02T12:48:24.282Z,27.76
2017-09-02T12:49:24.609Z,28.09
2017-09-02T12:50:24.606Z,28.32
2017-09-02T12:51:24.942Z,28.35
2017-09-02T12:52:24.937Z,27.96
2017-09-02T12:53:24.933Z,27.47
2017-09-02T12:54:24.297Z,27.02
2017-09-02T12:55:24.626Z,26.57